createdAt,value
2022-11-17T00:01:19.761Z,99707.06
2022-11-17T00:03:47.318Z,99713.88
2022-11-17T00:06:13.761Z,99720.78
2022-11-17T00:08:40.197Z,99725.06
2022-11-17T00:11:06.833Z,99715.44
2022-11-17T00:13:52.405Z,99718.16
2022-11-17T00:16:20.631Z,99707.84
2022-11-17T00:19:05.680Z,99700.03
2022-11-17T00:21:32.722Z,99706.16
2022-11-17T00:23:59.147Z,99701.81
2022-11-17T00:26:33.917Z,99701.72
2022-11-17T00:29:05.815Z,99700.19
2022-11-17T00:31:52.883Z,99707.06
2022-11-17T00:34:21.199Z,99697.59
2022-11-17T00:36:52.522Z,99700.19
2022-11-17T00:39:21.477Z,99693.28
2022-11-17T00:41:48.226Z,99695.91
2022-11-17T00:44:14.947Z,99686.41
2022-11-17T00:46:42.085Z,99693.31
2022-11-17T00:49:09.164Z,99684.72
2022-11-17T00:51:35.860Z,99680.44
2022-11-17T00:54:02.569Z,99682.19
2022-11-17T00:56:29.166Z,99689.91
2022-11-17T00:58:55.977Z,99682.19
2022-11-17T01:01:22.627Z,99685.59
2022-11-17T01:03:49.353Z,99686.47
2022-11-17T01:06:18.421Z,99675.28
2022-11-17T01:08:45.318Z,99676.16
2022-11-17T01:11:14.125Z,99675.34
2022-11-17T01:13:41.354Z,99680.53
2022-11-17T01:16:12.847Z,99682.13
2022-11-17T01:18:39.704Z,99670.78
2022-11-17T01:21:09.181Z,99669.03
2022-11-17T01:23:37.393Z,99667.22
2022-11-17T01:26:16.675Z,99662.78
2022-11-17T01:28:43.609Z,99665.16
2022-11-17T01:31:15.634Z,99668.50
2022-11-17T01:33:42.263Z,99659.75
2022-11-17T01:36:12.817Z,99658.81
2022-11-17T01:38:39.244Z,99648.53
2022-11-17T01:41:19.511Z,99653.63
2022-11-17T01:43:46.883Z,99651.72
2022-11-17T01:46:32.493Z,99643.84
2022-11-17T01:49:14.042Z,99644.84
2022-11-17T01:51:43.705Z,99643.03
2022-11-17T01:54:11.155Z,99635.25
2022-11-17T01:56:42.137Z,99630.09
2022-11-17T01:59:17.050Z,99622.38
2022-11-17T02:01:55.706Z,99624.03
2022-11-17T02:04:29.285Z,99627.38
2022-11-17T02:07:17.232Z,99631.63
2022-11-17T02:09:43.843Z,99621.09
2022-11-17T02:12:12.609Z,99618.41
2022-11-17T02:14:39.466Z,99620.28
2022-11-17T02:17:13.671Z,99613.47
2022-11-17T02:19:42.367Z,99614.34
2022-11-17T02:22:33.505Z,99607.66
2022-11-17T02:25:51.069Z,99612.03
2022-11-17T02:28:22.335Z,99605.13
2022-11-17T02:31:07.515Z,99607.81
2022-11-17T02:34:08.305Z,99613.00
2022-11-17T02:36:42.392Z,99607.84
2022-11-17T02:39:16.347Z,99602.72
2022-11-17T02:42:14.543Z,99610.28
2022-11-17T02:44:55.685Z,99601.53
2022-11-17T02:47:30.042Z,99597.22
2022-11-17T02:50:03.519Z,99590.31
2022-11-17T02:52:30.185Z,99582.31
2022-11-17T02:55:06.176Z,99579.69
2022-11-17T02:57:37.836Z,99571.97
2022-11-17T03:00:12.668Z,99580.53
2022-11-17T03:02:50.648Z,99579.75
2022-11-17T03:05:40.992Z,99586.59
2022-11-17T03:08:19.562Z,99586.69
2022-11-17T03:10:52.094Z,99583.22
2022-11-17T03:13:24.036Z,99573.69
2022-11-17T03:15:55.167Z,99568.59
2022-11-17T03:18:29.800Z,99564.25
2022-11-17T03:21:05.131Z,99571.84
2022-11-17T03:23:36.627Z,99560.63
2022-11-17T03:26:05.359Z,99558.81
2022-11-17T03:28:32.715Z,99564.84
2022-11-17T03:30:59.414Z,99563.91
2022-11-17T03:33:26.512Z,99566.28
2022-11-17T03:35:59.523Z,99560.31
2022-11-17T03:38:27.742Z,99549.75
2022-11-17T03:40:55.893Z,99561.69
2022-11-17T03:43:24.182Z,99544.16
2022-11-17T03:45:53.745Z,99556.34
2022-11-17T03:48:28.929Z,99547.66
2022-11-17T03:51:06.296Z,99554.44
2022-11-17T03:53:35.012Z,99551.72
2022-11-17T03:56:19.880Z,99554.22
2022-11-17T03:58:54.564Z,99553.25
2022-11-17T04:01:21.253Z,99549.84
2022-11-17T04:03:48.299Z,99547.22
2022-11-17T04:06:14.753Z,99543.06
2022-11-17T04:08:41.200Z,99536.94
2022-11-17T04:11:26.282Z,99533.59
2022-11-17T04:14:11.346Z,99524.28
2022-11-17T04:16:37.769Z,99522.66
2022-11-17T04:19:04.181Z,99524.41
2022-11-17T04:21:30.612Z,99517.44
2022-11-17T04:23:57.890Z,99507.94
2022-11-17T04:26:42.965Z,99513.78
2022-11-17T04:29:09.381Z,99508.50
2022-11-17T04:31:35.929Z,99501.44
2022-11-17T04:34:04.352Z,99507.47
2022-11-17T04:36:44.228Z,99509.22
2022-11-17T04:39:12.356Z,99499.91
2022-11-17T04:41:54.572Z,99506.59
2022-11-17T04:44:23.334Z,99507.31
2022-11-17T04:46:49.971Z,99501.97
2022-11-17T04:49:17.749Z,99502.69
2022-11-17T04:51:44.902Z,99500.00
2022-11-17T04:54:13.355Z,99502.63
2022-11-17T04:56:39.974Z,99501.84
2022-11-17T04:59:06.777Z,99489.66
2022-11-17T05:01:33.386Z,99497.97
2022-11-17T05:04:02.067Z,99491.19
2022-11-17T05:06:42.621Z,99487.91
2022-11-17T05:09:16.550Z,99481.88
2022-11-17T05:12:01.718Z,99477.69
2022-11-17T05:14:29.318Z,99487.78
2022-11-17T05:17:11.734Z,99486.22
2022-11-17T05:19:46.638Z,99494.81
2022-11-17T05:22:33.681Z,99505.13
2022-11-17T05:25:00.524Z,99495.63
2022-11-17T05:27:26.986Z,99499.72
2022-11-17T05:29:53.755Z,99487.56
2022-11-17T05:32:21.563Z,99486.81
2022-11-17T05:34:48.108Z,99487.56
2022-11-17T05:37:14.603Z,99486.53
2022-11-17T05:39:41.014Z,99483.94
2022-11-17T05:42:07.489Z,99474.28
2022-11-17T05:44:34.222Z,99462.91
2022-11-17T05:47:00.714Z,99468.06
2022-11-17T05:49:27.136Z,99457.72
2022-11-17T05:51:53.541Z,99462.81
2022-11-17T05:54:20.474Z,99466.16
2022-11-17T05:56:50.410Z,99459.28
2022-11-17T05:59:34.633Z,99459.22
2022-11-17T06:02:08.244Z,99469.44
2022-11-17T06:04:34.772Z,99465.13
2022-11-17T06:07:01.766Z,99466.94
2022-11-17T06:09:31.587Z,99452.38
2022-11-17T06:12:04.123Z,99458.41
2022-11-17T06:14:32.409Z,99456.03
2022-11-17T06:17:02.646Z,99452.53
2022-11-17T06:19:34.731Z,99448.31
2022-11-17T06:22:16.580Z,99450.88
2022-11-17T06:24:44.753Z,99443.94
2022-11-17T06:27:12.142Z,99441.28
2022-11-17T06:29:43.885Z,99432.69
2022-11-17T06:32:13.196Z,99426.69
2022-11-17T06:34:39.715Z,99425.00
2022-11-17T06:37:06.120Z,99420.72
2022-11-17T06:39:32.572Z,99417.22
2022-11-17T06:41:58.977Z,99418.16
2022-11-17T06:44:25.400Z,99419.91
2022-11-17T06:46:51.800Z,99418.00
2022-11-17T06:49:18.290Z,99422.25
2022-11-17T06:51:45.554Z,99409.41
2022-11-17T06:54:12.863Z,99410.22
2022-11-17T06:56:39.253Z,99412.91
2022-11-17T06:59:05.785Z,99407.88
2022-11-17T07:01:32.223Z,99412.28
2022-11-17T07:03:58.659Z,99422.56
2022-11-17T07:06:25.055Z,99418.03
2022-11-17T07:08:51.486Z,99426.69
2022-11-17T07:11:18.781Z,99419.03
2022-11-17T07:13:45.240Z,99423.28
2022-11-17T07:16:18.657Z,99425.88
2022-11-17T07:18:48.343Z,99424.94
2022-11-17T07:21:15.358Z,99432.84
2022-11-17T07:23:42.962Z,99424.94
2022-11-17T07:26:09.379Z,99428.44
2022-11-17T07:28:36.120Z,99424.25
2022-11-17T07:31:07.851Z,99426.88
2022-11-17T07:33:34.715Z,99419.91
2022-11-17T07:36:07.394Z,99414.72
2022-11-17T07:38:35.203Z,99427.75
2022-11-17T07:41:02.243Z,99421.75
2022-11-17T07:43:28.814Z,99415.84
2022-11-17T07:45:55.606Z,99413.97
2022-11-17T07:48:22.063Z,99413.97
2022-11-17T07:50:48.809Z,99406.28
2022-11-17T07:53:15.465Z,99411.53
2022-11-17T07:55:41.873Z,99403.09
2022-11-17T07:58:08.308Z,99410.75
2022-11-17T08:00:34.782Z,99404.78
2022-11-17T08:03:04.880Z,99406.59
2022-11-17T08:05:39.946Z,99393.75
2022-11-17T08:08:09.711Z,99393.06
2022-11-17T08:10:36.229Z,99394.72
2022-11-17T08:13:02.703Z,99388.03
2022-11-17T08:15:29.547Z,99374.31
2022-11-17T08:17:57.767Z,99372.66
2022-11-17T08:20:24.828Z,99367.69
2022-11-17T08:22:51.956Z,99370.25
2022-11-17T08:25:23.604Z,99366.91
2022-11-17T08:27:52.032Z,99362.66
2022-11-17T08:30:20.299Z,99365.38
2022-11-17T08:32:49.216Z,99365.44
2022-11-17T08:35:17.069Z,99368.88
2022-11-17T08:37:43.495Z,99359.53
2022-11-17T08:40:11.177Z,99356.91
2022-11-17T08:42:37.894Z,99361.28
2022-11-17T08:45:05.868Z,99351.00
2022-11-17T08:47:32.577Z,99359.53
2022-11-17T08:49:59.002Z,99363.91
2022-11-17T08:52:27.516Z,99367.38
2022-11-17T08:54:54.412Z,99365.69
2022-11-17T08:57:23.768Z,99361.47
2022-11-17T08:59:50.706Z,99370.97
2022-11-17T09:02:17.458Z,99358.13
2022-11-17T09:04:46.012Z,99362.44
2022-11-17T09:07:12.557Z,99353.91
2022-11-17T09:09:39.168Z,99350.44
2022-11-17T09:12:05.843Z,99350.44
2022-11-17T09:14:32.253Z,99339.41
2022-11-17T09:16:58.737Z,99357.34
2022-11-17T09:19:25.180Z,99341.88
2022-11-17T09:21:51.583Z,99345.34
2022-11-17T09:24:18.090Z,99340.16
2022-11-17T09:26:44.659Z,99332.59
2022-11-17T09:29:11.184Z,99327.47
2022-11-17T09:31:37.815Z,99340.13
2022-11-17T09:34:05.765Z,99335.72
2022-11-17T09:36:32.948Z,99338.47
2022-11-17T09:38:59.368Z,99340.22
2022-11-17T09:41:52.459Z,99344.59
2022-11-17T09:44:31.162Z,99341.00
2022-11-17T09:47:02.566Z,99341.72
2022-11-17T09:49:56.808Z,99334.00
2022-11-17T09:52:42.811Z,99332.28
2022-11-17T09:55:09.107Z,99319.53
2022-11-17T09:57:48.572Z,99315.31
2022-11-17T10:00:16.235Z,99322.22
2022-11-17T10:02:43.237Z,99311.94
2022-11-17T10:05:15.142Z,99312.03
2022-11-17T10:07:53.189Z,99311.25
2022-11-17T10:10:22.839Z,99313.88
2022-11-17T10:12:52.705Z,99304.47
2022-11-17T10:15:27.648Z,99317.31
2022-11-17T10:17:54.080Z,99303.59
2022-11-17T10:20:20.778Z,99310.63
2022-11-17T10:22:48.259Z,99314.09
2022-11-17T10:25:36.883Z,99307.22
2022-11-17T10:28:04.255Z,99300.31
2022-11-17T10:30:30.666Z,99304.69
2022-11-17T10:32:59.057Z,99297.13
2022-11-17T10:35:34.806Z,99290.41
2022-11-17T10:38:22.419Z,99299.78
2022-11-17T10:40:50.556Z,99295.53
2022-11-17T10:43:23.284Z,99295.47
2022-11-17T10:45:52.488Z,99284.25
2022-11-17T10:48:21.845Z,99274.78
2022-11-17T10:50:53.819Z,99267.84
2022-11-17T10:53:46.210Z,99266.34
2022-11-17T10:56:16.186Z,99256.97
2022-11-17T10:58:56.759Z,99254.41
2022-11-17T11:01:37.935Z,99255.13
2022-11-17T11:04:06.389Z,99243.25
2022-11-17T11:06:34.712Z,99241.53
2022-11-17T11:09:12.328Z,99233.75
2022-11-17T11:11:47.205Z,99235.63
2022-11-17T11:14:18.555Z,99233.91
2022-11-17T11:16:48.549Z,99228.69
2022-11-17T11:19:17.279Z,99217.69
2022-11-17T11:21:53.401Z,99219.53
2022-11-17T11:24:45.345Z,99212.72
2022-11-17T11:27:24.103Z,99211.06
2022-11-17T11:30:04.289Z,99213.78
2022-11-17T11:32:36.861Z,99205.97
2022-11-17T11:35:21.769Z,99210.25
2022-11-17T11:38:22.054Z,99204.22
2022-11-17T11:41:11.213Z,99200.94
2022-11-17T11:43:46.772Z,99201.69
2022-11-17T11:46:18.915Z,99206.84
2022-11-17T11:48:47.075Z,99213.78
2022-11-17T11:51:29.509Z,99202.59
2022-11-17T11:54:05.941Z,99198.22
2022-11-17T11:56:45.946Z,99203.41
2022-11-17T11:59:19.761Z,99204.44
2022-11-17T12:02:11.115Z,99194.19
2022-11-17T12:04:50.921Z,99190.75
2022-11-17T12:07:30.635Z,99189.03
2022-11-17T12:10:20.462Z,99188.22
2022-11-17T12:12:47.457Z,99195.19
2022-11-17T12:15:19.865Z,99186.50
2022-11-17T12:17:58.986Z,99183.91
2022-11-17T12:20:52.774Z,99181.31
2022-11-17T12:23:40.980Z,99182.91
2022-11-17T12:26:07.399Z,99181.25
2022-11-17T12:28:39.056Z,99182.97
2022-11-17T12:31:25.697Z,99178.75
2022-11-17T12:33:52.011Z,99176.19
2022-11-17T12:36:30.128Z,99167.47
2022-11-17T12:39:05.432Z,99182.03
2022-11-17T12:41:47.104Z,99181.13
2022-11-17T12:44:32.232Z,99175.22
2022-11-17T12:47:27.776Z,99196.56
2022-11-17T12:50:19.073Z,99181.13
2022-11-17T12:53:14.415Z,99187.09
2022-11-17T12:56:07.639Z,99185.25
2022-11-17T12:58:55.129Z,99172.50
2022-11-17T13:01:31.385Z,99169.91
2022-11-17T13:04:07.471Z,99169.81
2022-11-17T13:06:35.790Z,99178.47
2022-11-17T13:09:10.590Z,99171.78
2022-11-17T13:11:37.004Z,99164.75
2022-11-17T13:14:15.167Z,99172.59
2022-11-17T13:16:51.538Z,99172.59
2022-11-17T13:19:36.119Z,99170.81
2022-11-17T13:22:11.756Z,99163.09
2022-11-17T13:24:39.152Z,99170.81
2022-11-17T13:27:15.857Z,99159.75
2022-11-17T13:29:42.351Z,99161.44
2022-11-17T13:32:14.338Z,99163.94
2022-11-17T13:34:57.301Z,99165.69
2022-11-17T13:37:28.931Z,99166.50
2022-11-17T13:40:03.805Z,99174.22
2022-11-17T13:42:32.283Z,99172.41
2022-11-17T13:45:01.858Z,99175.78
2022-11-17T13:47:49.145Z,99164.53
2022-11-17T13:50:27.639Z,99167.94
2022-11-17T13:52:55.901Z,99172.41
2022-11-17T13:55:23.260Z,99185.25
2022-11-17T13:58:01.834Z,99170.56
2022-11-17T14:00:29.552Z,99183.44
2022-11-17T14:03:05.989Z,99178.22
2022-11-17T14:05:33.101Z,99174.00
2022-11-17T14:08:12.056Z,99187.84
2022-11-17T14:10:39.270Z,99183.47
2022-11-17T14:13:05.590Z,99186.81
2022-11-17T14:15:37.657Z,99194.72
2022-11-17T14:18:16.242Z,99181.81
2022-11-17T14:20:43.134Z,99182.78
2022-11-17T14:23:12.523Z,99188.66
2022-11-17T14:25:44.493Z,99194.72
2022-11-17T14:28:19.623Z,99198.22
2022-11-17T14:30:50.616Z,99193.06
2022-11-17T14:33:17.172Z,99199.00
2022-11-17T14:35:44.758Z,99202.41
2022-11-17T14:38:17.395Z,99185.22
2022-11-17T14:40:43.963Z,99184.34
2022-11-17T14:43:10.401Z,99193.81
2022-11-17T14:45:36.832Z,99189.41
2022-11-17T14:48:06.001Z,99198.81
2022-11-17T14:50:32.428Z,99203.09
2022-11-17T14:52:58.920Z,99207.44
2022-11-17T14:55:26.415Z,99198.84
2022-11-17T14:57:52.868Z,99199.78
2022-11-17T15:00:20.815Z,99198.91
2022-11-17T15:02:47.764Z,99211.81
2022-11-17T15:05:14.678Z,99204.13
2022-11-17T15:07:41.186Z,99202.31
2022-11-17T15:10:08.908Z,99197.94
2022-11-17T15:12:35.415Z,99205.75
2022-11-17T15:15:01.851Z,99199.69
2022-11-17T15:17:28.357Z,99204.00
2022-11-17T15:19:55.105Z,99204.84
2022-11-17T15:22:21.586Z,99212.50
2022-11-17T15:24:48.127Z,99209.97
2022-11-17T15:27:14.853Z,99211.72
2022-11-17T15:29:41.278Z,99216.81
2022-11-17T15:32:08.095Z,99209.97
2022-11-17T15:34:35.546Z,99217.66
2022-11-17T15:37:01.943Z,99207.31
2022-11-17T15:39:28.351Z,99222.75
2022-11-17T15:41:54.927Z,99215.06
2022-11-17T15:44:21.381Z,99219.41
2022-11-17T15:46:48.150Z,99221.78
2022-11-17T15:49:15.269Z,99220.88
2022-11-17T15:51:41.947Z,99223.50
2022-11-17T15:54:16.392Z,99231.25
2022-11-17T15:56:46.279Z,99224.41
2022-11-17T15:59:12.821Z,99219.44
2022-11-17T16:01:40.089Z,99226.28
2022-11-17T16:04:08.706Z,99220.28
2022-11-17T16:06:37.191Z,99217.66
2022-11-17T16:09:04.757Z,99221.06
2022-11-17T16:11:31.260Z,99209.75
2022-11-17T16:13:59.004Z,99215.81
2022-11-17T16:16:28.489Z,99206.38
2022-11-17T16:18:55.018Z,99214.91
2022-11-17T16:21:21.466Z,99208.84
2022-11-17T16:23:55.966Z,99207.25
2022-11-17T16:26:25.686Z,99210.69
2022-11-17T16:29:02.029Z,99212.38
2022-11-17T16:31:30.461Z,99208.19
2022-11-17T16:33:59.200Z,99204.78
2022-11-17T16:36:31.254Z,99221.06
2022-11-17T16:39:02.120Z,99205.66
2022-11-17T16:41:34.279Z,99209.97
2022-11-17T16:44:01.914Z,99215.16
2022-11-17T16:46:30.524Z,99213.38
2022-11-17T16:49:01.229Z,99204.78
2022-11-17T16:51:27.878Z,99203.09
2022-11-17T16:53:56.321Z,99209.97
2022-11-17T16:56:22.795Z,99214.28
2022-11-17T16:58:50.168Z,99206.53
2022-11-17T17:01:22.128Z,99211.72
2022-11-17T17:03:48.596Z,99209.75
2022-11-17T17:06:17.516Z,99212.28
2022-11-17T17:08:44.395Z,99216.66
2022-11-17T17:11:15.826Z,99219.22
2022-11-17T17:13:42.993Z,99217.44
2022-11-17T17:16:12.862Z,99219.88
2022-11-17T17:18:39.901Z,99220.69
2022-11-17T17:21:06.794Z,99221.53
2022-11-17T17:23:34.781Z,99229.28
2022-11-17T17:26:01.180Z,99229.28
2022-11-17T17:28:29.976Z,99234.38
2022-11-17T17:30:56.411Z,99236.94
2022-11-17T17:33:22.843Z,99233.56
2022-11-17T17:35:49.269Z,99238.66
2022-11-17T17:38:15.672Z,99228.41
2022-11-17T17:40:42.126Z,99231.06
2022-11-17T17:43:08.619Z,99232.00
2022-11-17T17:45:37.701Z,99238.88
2022-11-17T17:48:05.210Z,99244.13
2022-11-17T17:50:31.690Z,99240.75
2022-11-17T17:52:58.100Z,99237.44
2022-11-17T17:55:24.510Z,99242.50
2022-11-17T17:57:50.904Z,99239.97
2022-11-17T18:00:17.841Z,99239.97
2022-11-17T18:02:44.320Z,99247.56
2022-11-17T18:05:10.789Z,99251.97
2022-11-17T18:07:37.268Z,99245.06
2022-11-17T18:10:03.897Z,99254.53
2022-11-17T18:12:30.291Z,99254.53
2022-11-17T18:14:56.760Z,99263.94
2022-11-17T18:17:23.164Z,99264.00
2022-11-17T18:19:49.564Z,99268.31
2022-11-17T18:22:16.125Z,99268.31
2022-11-17T18:24:42.540Z,99267.50
2022-11-17T18:27:09.203Z,99261.53
2022-11-17T18:29:35.601Z,99265.69
2022-11-17T18:32:02.026Z,99280.25
2022-11-17T18:34:28.440Z,99282.84
2022-11-17T18:36:55.664Z,99283.66
2022-11-17T18:39:22.213Z,99282.78
2022-11-17T18:41:48.701Z,99281.09
2022-11-17T18:44:17.037Z,99291.28
2022-11-17T18:46:43.501Z,99288.84
2022-11-17T18:49:10.052Z,99281.09
2022-11-17T18:51:36.490Z,99284.47
2022-11-17T18:54:03.581Z,99279.22
2022-11-17T18:56:35.546Z,99281.91
2022-11-17T18:59:02.688Z,99283.66
2022-11-17T19:01:29.915Z,99277.63
2022-11-17T19:03:58.247Z,99287.16
2022-11-17T19:06:25.396Z,99284.41
2022-11-17T19:08:52.291Z,99291.19
2022-11-17T19:11:20.032Z,99300.63
2022-11-17T19:13:46.654Z,99304.88
2022-11-17T19:16:15.201Z,99304.88
2022-11-17T19:18:42.395Z,99299.78
2022-11-17T19:21:20.165Z,99301.53
2022-11-17T19:23:51.480Z,99299.91
2022-11-17T19:26:23.789Z,99305.09
2022-11-17T19:28:50.466Z,99306.91
2022-11-17T19:31:19.656Z,99297.41
2022-11-17T19:33:47.521Z,99292.28
2022-11-17T19:36:16.177Z,99287.09
2022-11-17T19:38:43.418Z,99287.16
2022-11-17T19:41:12.592Z,99276.88
2022-11-17T19:43:44.809Z,99275.06
2022-11-17T19:46:16.651Z,99275.94
2022-11-17T19:48:44.212Z,99285.34
2022-11-17T19:51:19.684Z,99278.50
2022-11-17T19:53:47.309Z,99281.97
2022-11-17T19:56:14.166Z,99280.25
2022-11-17T19:58:41.195Z,99288.03
2022-11-17T20:01:13.214Z,99298.31
2022-11-17T20:03:40.227Z,99300.88
2022-11-17T20:06:07.417Z,99313.84
2022-11-17T20:08:33.983Z,99312.97
2022-11-17T20:11:14.086Z,99319.00
2022-11-17T20:13:41.402Z,99319.81
2022-11-17T20:16:12.419Z,99313.78
2022-11-17T20:18:40.132Z,99314.63
2022-11-17T20:21:06.783Z,99314.72
2022-11-17T20:23:34.589Z,99325.84
2022-11-17T20:26:18.843Z,99319.88
2022-11-17T20:28:45.448Z,99324.13
2022-11-17T20:31:14.272Z,99327.59
2022-11-17T20:33:42.574Z,99321.59
2022-11-17T20:36:11.832Z,99321.69
2022-11-17T20:38:38.671Z,99317.34
2022-11-17T20:41:05.453Z,99324.28
2022-11-17T20:43:32.537Z,99313.94
2022-11-17T20:45:59.237Z,99316.56
2022-11-17T20:48:26.199Z,99324.28
2022-11-17T20:50:59.496Z,99322.56
2022-11-17T20:53:27.015Z,99324.28
2022-11-17T20:55:57.340Z,99330.25
2022-11-17T20:58:27.286Z,99330.25
2022-11-17T21:00:54.298Z,99337.88
2022-11-17T21:03:20.835Z,99340.44
2022-11-17T21:05:58.399Z,99337.03
2022-11-17T21:08:26.797Z,99331.81
2022-11-17T21:11:32.859Z,99342.88
2022-11-17T21:13:59.606Z,99346.38
2022-11-17T21:16:26.056Z,99344.63
2022-11-17T21:18:52.521Z,99350.53
2022-11-17T21:21:18.937Z,99347.00
2022-11-17T21:23:45.459Z,99344.44
2022-11-17T21:26:14.597Z,99350.41
2022-11-17T21:28:41.409Z,99352.94
2022-11-17T21:31:10.691Z,99355.56
2022-11-17T21:33:37.531Z,99359.72
2022-11-17T21:36:09.511Z,99370.06
2022-11-17T21:38:36.821Z,99356.28
2022-11-17T21:41:07.662Z,99357.97
2022-11-17T21:43:36.337Z,99354.53
2022-11-17T21:46:03.911Z,99356.19
2022-11-17T21:48:30.402Z,99352.78
2022-11-17T21:50:56.877Z,99356.19
2022-11-17T21:53:23.293Z,99356.19
2022-11-17T21:55:49.765Z,99357.09
2022-11-17T21:58:16.170Z,99358.75
2022-11-17T22:00:42.698Z,99367.28
2022-11-17T22:03:09.220Z,99357.88
2022-11-17T22:05:35.795Z,99368.13
2022-11-17T22:08:02.356Z,99356.09
2022-11-17T22:10:28.810Z,99368.06
2022-11-17T22:12:55.209Z,99370.56
2022-11-17T22:15:21.638Z,99374.03
2022-11-17T22:17:48.686Z,99365.34
2022-11-17T22:20:15.420Z,99379.97
2022-11-17T22:22:41.930Z,99384.22
2022-11-17T22:25:30.268Z,99396.28
2022-11-17T22:27:55.154Z,99397.91
2022-11-17T22:30:21.630Z,99392.78
2022-11-17T22:32:48.029Z,99398.75
2022-11-17T22:35:14.547Z,99399.47
2022-11-17T22:37:40.932Z,99408.94
2022-11-17T22:40:07.635Z,99411.50
2022-11-17T22:42:34.036Z,99420.91
2022-11-17T22:45:00.441Z,99419.31
2022-11-17T22:47:26.834Z,99414.16
2022-11-17T22:49:53.239Z,99413.34
2022-11-17T22:52:19.641Z,99409.94
2022-11-17T22:54:46.044Z,99418.53
2022-11-17T22:57:12.433Z,99416.84
2022-11-17T22:59:38.837Z,99422.00
2022-11-17T23:02:05.250Z,99410.78
2022-11-17T23:04:31.680Z,99415.09
2022-11-17T23:06:58.138Z,99417.66
2022-11-17T23:09:24.605Z,99421.13
2022-11-17T23:11:51.055Z,99423.63
2022-11-17T23:14:17.479Z,99424.41
2022-11-17T23:16:43.909Z,99424.34
2022-11-17T23:19:12.497Z,99429.50
2022-11-17T23:21:38.937Z,99432.94
2022-11-17T23:24:05.726Z,99444.94
2022-11-17T23:26:32.241Z,99447.50
2022-11-17T23:28:58.843Z,99444.00
2022-11-17T23:31:27.710Z,99447.41
2022-11-17T23:33:55.211Z,99441.44
2022-11-17T23:36:22.199Z,99449.97
2022-11-17T23:38:49.323Z,99450.00
2022-11-17T23:41:17.667Z,99445.75
2022-11-17T23:43:44.097Z,99450.00
2022-11-17T23:46:13.055Z,99445.75
2022-11-17T23:48:39.753Z,99455.25
2022-11-17T23:51:08.019Z,99446.69
2022-11-17T23:53:34.607Z,99447.59
2022-11-17T23:56:01.395Z,99450.13
2022-11-17T23:58:28.458Z,99450.22
